createdAt,value
2019-03-06T00:00:45.368Z,88.12
2019-03-06T00:03:14.766Z,87.96
2019-03-06T00:05:44.173Z,87.86
2019-03-06T00:08:13.266Z,88.00
2019-03-06T00:10:42.363Z,87.96
2019-03-06T00:13:11.095Z,88.18
2019-03-06T00:15:39.818Z,88.11
2019-03-06T00:18:09.137Z,87.75
2019-03-06T00:20:38.135Z,88.31
2019-03-06T00:23:06.829Z,88.43
2019-03-06T00:25:35.813Z,89.11
2019-03-06T00:28:04.807Z,89.28
2019-03-06T00:30:33.455Z,89.59
2019-03-06T00:33:03.102Z,89.38
2019-03-06T00:35:34.909Z,89.58
2019-03-06T00:38:04.083Z,89.96
2019-03-06T00:40:41.356Z,90.34
2019-03-06T00:43:10.226Z,90.19
2019-03-06T00:45:39.026Z,89.86
2019-03-06T00:48:08.189Z,89.82
2019-03-06T00:50:37.330Z,88.87
2019-03-06T00:53:06.091Z,88.34
2019-03-06T00:55:35.307Z,88.04
2019-03-06T00:58:04.025Z,87.52
2019-03-06T01:00:32.989Z,87.45
2019-03-06T01:03:01.986Z,87.32
2019-03-06T01:05:30.942Z,87.46
2019-03-06T01:07:59.580Z,87.52
2019-03-06T01:10:28.454Z,87.62
2019-03-06T01:12:57.755Z,87.34
2019-03-06T01:15:26.746Z,87.09
2019-03-06T01:17:55.976Z,86.98
2019-03-06T01:20:24.684Z,86.67
2019-03-06T01:22:53.421Z,86.63
2019-03-06T01:25:22.320Z,86.74
2019-03-06T01:27:50.950Z,86.66
2019-03-06T01:30:19.813Z,86.81
2019-03-06T01:32:51.139Z,87.05
2019-03-06T01:35:36.574Z,87.11
2019-03-06T01:38:21.177Z,87.20
2019-03-06T01:41:06.719Z,87.11
2019-03-06T01:43:57.934Z,86.79
2019-03-06T01:46:26.961Z,86.72
2019-03-06T01:48:55.601Z,87.11
2019-03-06T01:51:24.239Z,86.61
2019-03-06T01:53:53.167Z,86.46
2019-03-06T01:56:22.121Z,86.36
2019-03-06T01:58:50.746Z,85.90
2019-03-06T02:01:19.699Z,85.81
2019-03-06T02:03:49.100Z,85.18
2019-03-06T02:06:18.708Z,85.68
2019-03-06T02:08:47.714Z,85.20
2019-03-06T02:11:16.418Z,84.80
2019-03-06T02:13:45.689Z,84.54
2019-03-06T02:16:14.582Z,84.55
2019-03-06T02:18:43.882Z,84.78
2019-03-06T02:21:13.182Z,84.52
2019-03-06T02:23:42.488Z,84.48
2019-03-06T02:26:11.288Z,84.01
2019-03-06T02:28:40.372Z,84.35
2019-03-06T02:31:09.407Z,84.74
2019-03-06T02:33:38.045Z,84.81
2019-03-06T02:36:06.862Z,84.70
2019-03-06T02:38:35.830Z,84.94
2019-03-06T02:41:04.453Z,85.23
2019-03-06T02:43:33.065Z,85.35
2019-03-06T02:46:01.694Z,85.67
2019-03-06T02:48:30.889Z,85.38
2019-03-06T02:50:59.527Z,85.79
2019-03-06T02:53:28.774Z,85.56
2019-03-06T02:55:57.406Z,85.87
2019-03-06T02:58:32.191Z,86.03
2019-03-06T03:01:23.195Z,85.74
2019-03-06T03:04:17.019Z,86.02
2019-03-06T03:07:04.262Z,86.05
2019-03-06T03:09:33.306Z,86.58
2019-03-06T03:12:02.002Z,86.49
2019-03-06T03:14:30.639Z,87.04
2019-03-06T03:16:59.342Z,87.11
2019-03-06T03:19:28.342Z,87.72
2019-03-06T03:21:57.536Z,87.74
2019-03-06T03:24:26.174Z,87.77
2019-03-06T03:26:55.138Z,88.12
2019-03-06T03:29:24.111Z,88.14
2019-03-06T03:31:52.742Z,88.21
2019-03-06T03:34:21.710Z,88.69
2019-03-06T03:36:50.595Z,88.90
2019-03-06T03:39:19.791Z,89.00
2019-03-06T03:41:48.803Z,89.22
2019-03-06T03:44:17.431Z,89.54
2019-03-06T03:46:46.376Z,89.81
2019-03-06T03:49:15.654Z,90.08
2019-03-06T03:51:44.286Z,90.14
2019-03-06T03:54:12.974Z,90.27
2019-03-06T03:56:41.917Z,90.58
2019-03-06T03:59:11.216Z,90.63
2019-03-06T04:01:40.115Z,90.69
2019-03-06T04:04:09.110Z,90.71
2019-03-06T04:06:38.094Z,90.99
2019-03-06T04:09:07.498Z,91.18
2019-03-06T04:11:36.495Z,91.43
2019-03-06T04:14:05.792Z,91.60
2019-03-06T04:16:34.508Z,91.78
2019-03-06T04:19:03.471Z,91.86
2019-03-06T04:21:32.680Z,91.91
2019-03-06T04:24:01.323Z,92.03
2019-03-06T04:26:30.365Z,91.97
2019-03-06T04:28:59.639Z,92.03
2019-03-06T04:31:28.646Z,92.09
2019-03-06T04:33:57.740Z,92.08
2019-03-06T04:36:26.682Z,92.21
2019-03-06T04:38:55.422Z,92.24
2019-03-06T04:41:24.540Z,92.26
2019-03-06T04:43:53.817Z,92.40
2019-03-06T04:46:22.452Z,92.45
2019-03-06T04:48:51.090Z,92.46
2019-03-06T04:51:20.183Z,92.59
2019-03-06T04:53:49.415Z,92.55
2019-03-06T04:56:18.687Z,92.57
2019-03-06T04:58:47.880Z,92.64
2019-03-06T05:01:16.874Z,92.59
2019-03-06T05:03:46.060Z,92.64
2019-03-06T05:06:14.998Z,92.61
2019-03-06T05:08:43.663Z,92.65
2019-03-06T05:11:12.949Z,92.71
2019-03-06T05:13:42.151Z,92.58
2019-03-06T05:16:11.155Z,92.51
2019-03-06T05:18:52.077Z,92.55
2019-03-06T05:21:21.015Z,92.55
2019-03-06T05:23:50.157Z,92.56
2019-03-06T05:26:18.840Z,92.57
2019-03-06T05:28:48.031Z,92.61
2019-03-06T05:31:16.867Z,92.59
2019-03-06T05:33:45.490Z,92.57
2019-03-06T05:36:45.810Z,92.55
2019-03-06T05:39:14.789Z,92.49
2019-03-06T05:41:43.431Z,92.30
2019-03-06T05:44:12.671Z,92.20
2019-03-06T05:46:41.970Z,92.03
2019-03-06T05:49:10.833Z,92.00
2019-03-06T05:51:39.460Z,91.95
2019-03-06T05:54:08.369Z,91.90
2019-03-06T05:56:37.571Z,91.92
2019-03-06T05:59:06.336Z,91.94
2019-03-06T06:01:35.627Z,91.95
2019-03-06T06:04:04.597Z,91.83
2019-03-06T06:06:33.189Z,91.73
2019-03-06T06:09:02.324Z,91.71
2019-03-06T06:11:31.195Z,91.64
2019-03-06T06:14:00.626Z,91.59
2019-03-06T06:16:29.838Z,91.41
2019-03-06T06:18:58.506Z,91.28
2019-03-06T06:21:44.553Z,91.28
2019-03-06T06:24:24.815Z,91.30
2019-03-06T06:26:53.582Z,91.32
2019-03-06T06:29:22.184Z,91.30
2019-03-06T06:31:50.812Z,91.25
2019-03-06T06:34:19.545Z,91.26
2019-03-06T06:36:48.439Z,91.30
2019-03-06T06:39:17.104Z,91.30
2019-03-06T06:41:46.086Z,91.26
2019-03-06T06:44:14.699Z,91.24
2019-03-06T06:46:43.711Z,91.21
2019-03-06T06:49:12.354Z,91.06
2019-03-06T06:51:56.675Z,90.98
2019-03-06T06:54:37.137Z,90.83
2019-03-06T06:57:40.140Z,90.78
2019-03-06T07:00:19.567Z,90.66
2019-03-06T07:03:41.778Z,90.34
2019-03-06T07:06:35.577Z,90.15
2019-03-06T07:09:20.239Z,89.75
2019-03-06T07:11:59.423Z,89.66
2019-03-06T07:14:43.610Z,89.47
2019-03-06T07:17:40.667Z,89.44
2019-03-06T07:20:31.676Z,89.41
2019-03-06T07:23:07.160Z,89.12
2019-03-06T07:25:57.774Z,88.92
2019-03-06T07:28:40.034Z,88.81
2019-03-06T07:31:31.010Z,88.48
2019-03-06T07:34:11.248Z,88.31
2019-03-06T07:37:05.045Z,88.34
2019-03-06T07:39:40.523Z,88.02
2019-03-06T07:42:27.104Z,87.91
2019-03-06T07:46:01.049Z,87.74
2019-03-06T07:49:11.075Z,87.53
2019-03-06T07:51:57.817Z,87.28
2019-03-06T07:54:37.973Z,87.17
2019-03-06T07:57:37.884Z,86.75
2019-03-06T08:00:16.732Z,86.34
2019-03-06T08:03:07.524Z,86.19
2019-03-06T08:05:36.403Z,86.04
2019-03-06T08:08:05.286Z,85.84
2019-03-06T08:10:36.060Z,85.95
2019-03-06T08:13:33.023Z,85.87
2019-03-06T08:16:33.456Z,85.54
2019-03-06T08:19:23.905Z,85.17
2019-03-06T08:22:00.362Z,84.96
2019-03-06T08:24:40.021Z,84.56
2019-03-06T08:27:09.011Z,84.32
2019-03-06T08:29:37.957Z,84.33
2019-03-06T08:32:14.290Z,84.13
2019-03-06T08:34:42.987Z,83.48
2019-03-06T08:37:11.589Z,83.07
2019-03-06T08:39:40.500Z,83.02
2019-03-06T08:42:09.560Z,82.92
2019-03-06T08:44:38.676Z,82.89
2019-03-06T08:47:25.464Z,82.28
2019-03-06T08:50:11.019Z,82.28
2019-03-06T08:52:47.231Z,82.06
2019-03-06T08:55:22.511Z,81.65
2019-03-06T09:01:59.802Z,81.50
2019-03-06T09:05:28.576Z,81.38
2019-03-06T09:08:22.356Z,81.03
2019-03-06T09:11:03.069Z,80.30
2019-03-06T09:13:56.276Z,79.83
2019-03-06T09:16:33.682Z,78.55
2019-03-06T09:19:21.446Z,78.55
2019-03-06T09:22:02.742Z,78.68
2019-03-06T09:24:49.476Z,78.02
2019-03-06T09:27:42.939Z,78.11
2019-03-06T09:30:26.272Z,77.26
2019-03-06T09:33:00.247Z,77.26
2019-03-06T09:35:47.295Z,77.14
2019-03-06T09:38:31.860Z,77.39
2019-03-06T09:41:19.346Z,77.39
2019-03-06T09:43:59.673Z,76.62
2019-03-06T09:46:40.476Z,77.09
2019-03-06T09:49:15.825Z,76.12
2019-03-06T09:52:15.835Z,75.84
2019-03-06T09:55:02.922Z,75.84
2019-03-06T09:57:43.776Z,76.21
2019-03-06T10:00:32.710Z,76.39
2019-03-06T10:03:13.699Z,76.23
2019-03-06T10:05:54.107Z,75.94
2019-03-06T10:08:36.777Z,75.05
2019-03-06T10:11:17.207Z,74.63
2019-03-06T10:13:57.374Z,73.80
2019-03-06T10:16:48.615Z,73.09
2019-03-06T10:19:26.367Z,72.93
2019-03-06T10:21:55.117Z,72.22
2019-03-06T10:24:23.847Z,72.17
2019-03-06T10:26:52.849Z,71.35
2019-03-06T10:29:22.172Z,70.75
2019-03-06T10:31:51.075Z,70.07
2019-03-06T10:34:20.372Z,69.36
2019-03-06T10:36:49.870Z,68.52
2019-03-06T10:39:18.754Z,68.25
2019-03-06T10:41:47.495Z,68.07
2019-03-06T10:44:17.266Z,67.62
2019-03-06T10:46:45.877Z,67.18
2019-03-06T10:49:15.039Z,66.85
2019-03-06T10:51:43.989Z,66.82
2019-03-06T10:54:12.985Z,66.36
2019-03-06T10:56:41.967Z,66.62
2019-03-06T10:59:10.662Z,66.50
2019-03-06T11:01:39.347Z,66.66
2019-03-06T11:04:39.321Z,65.84
2019-03-06T11:07:08.099Z,65.91
2019-03-06T11:09:37.001Z,65.20
2019-03-06T11:12:07.331Z,65.45
2019-03-06T11:14:36.474Z,65.35
2019-03-06T11:17:05.221Z,65.16
2019-03-06T11:19:34.332Z,64.45
2019-03-06T11:22:03.576Z,64.67
2019-03-06T11:24:32.296Z,65.51
2019-03-06T11:27:01.076Z,65.51
2019-03-06T11:29:30.049Z,67.19
2019-03-06T11:31:58.778Z,67.91
2019-03-06T11:34:27.779Z,68.40
2019-03-06T11:36:57.452Z,67.85
2019-03-06T11:39:26.444Z,67.57
2019-03-06T11:41:55.496Z,67.84
2019-03-06T11:44:24.147Z,67.50
2019-03-06T11:46:53.169Z,67.23
2019-03-06T11:49:21.839Z,67.95
2019-03-06T11:51:50.750Z,68.99
2019-03-06T11:54:19.694Z,71.24
2019-03-06T11:56:48.628Z,71.35
2019-03-06T11:59:17.370Z,71.70
2019-03-06T12:01:48.235Z,71.69
2019-03-06T12:04:17.321Z,71.98
2019-03-06T12:06:46.113Z,72.39
2019-03-06T12:09:32.250Z,72.75
2019-03-06T12:12:01.692Z,74.02
2019-03-06T12:14:30.480Z,73.85
2019-03-06T12:16:59.668Z,74.39
2019-03-06T12:19:28.394Z,75.29
2019-03-06T12:21:57.346Z,75.54
2019-03-06T12:24:26.209Z,76.39
2019-03-06T12:26:55.360Z,76.02
2019-03-06T12:29:24.401Z,75.72
2019-03-06T12:31:53.639Z,76.38
2019-03-06T12:34:22.507Z,76.04
2019-03-06T12:36:51.324Z,76.62
2019-03-06T12:39:20.783Z,76.29
2019-03-06T12:41:49.707Z,76.04
2019-03-06T12:44:18.327Z,75.61
2019-03-06T12:46:50.193Z,75.78
2019-03-06T12:49:20.318Z,74.84
2019-03-06T12:51:54.311Z,74.24
2019-03-06T12:54:19.488Z,74.02
2019-03-06T12:56:48.254Z,74.03
2019-03-06T12:59:17.349Z,73.12
2019-03-06T13:01:46.122Z,72.81
2019-03-06T13:04:14.892Z,72.67
2019-03-06T13:06:43.731Z,72.83
2019-03-06T13:09:17.226Z,72.53
2019-03-06T13:11:45.957Z,71.19
2019-03-06T13:14:14.851Z,71.29
2019-03-06T13:16:44.027Z,71.54
2019-03-06T13:19:13.211Z,71.43
2019-03-06T13:21:42.011Z,70.62
2019-03-06T13:24:10.676Z,70.58
2019-03-06T13:26:39.407Z,69.54
2019-03-06T13:29:08.091Z,69.17
2019-03-06T13:31:36.994Z,68.59
2019-03-06T13:34:13.784Z,68.59
2019-03-06T13:36:42.407Z,68.19
2019-03-06T13:39:11.636Z,67.61
2019-03-06T13:41:40.814Z,67.77
2019-03-06T13:44:10.164Z,67.22
2019-03-06T13:46:38.841Z,66.77
2019-03-06T13:49:08.299Z,66.77
2019-03-06T13:51:37.256Z,66.69
2019-03-06T13:54:06.303Z,66.69
2019-03-06T13:56:35.381Z,66.47
2019-03-06T13:59:04.505Z,66.31
2019-03-06T14:01:33.167Z,66.47
2019-03-06T14:04:01.913Z,65.90
2019-03-06T14:06:30.542Z,65.90
2019-03-06T14:08:59.423Z,66.09
2019-03-06T14:11:28.384Z,65.86
2019-03-06T14:13:57.238Z,65.79
2019-03-06T14:16:26.231Z,65.54
2019-03-06T14:18:55.124Z,65.40
2019-03-06T14:21:24.085Z,65.75
2019-03-06T14:23:52.769Z,65.69
2019-03-06T14:26:21.791Z,65.56
2019-03-06T14:28:50.916Z,65.62
2019-03-06T14:31:19.678Z,65.50
2019-03-06T14:33:48.390Z,65.52
2019-03-06T14:36:17.686Z,65.49
2019-03-06T14:38:46.589Z,65.89
2019-03-06T14:41:15.451Z,66.24
2019-03-06T14:43:44.188Z,66.00
2019-03-06T14:46:16.462Z,66.10
2019-03-06T14:48:43.668Z,66.03
2019-03-06T14:51:13.939Z,66.06
2019-03-06T14:53:42.997Z,66.12
2019-03-06T14:56:11.952Z,65.92
2019-03-06T14:58:41.017Z,65.87
2019-03-06T15:01:09.941Z,65.99
2019-03-06T15:03:38.559Z,66.28
2019-03-06T15:06:07.657Z,65.88
2019-03-06T15:08:36.378Z,66.23
2019-03-06T15:11:05.439Z,66.13
2019-03-06T15:13:34.330Z,66.31
2019-03-06T15:16:03.575Z,66.34
2019-03-06T15:18:32.220Z,66.16
2019-03-06T15:21:01.558Z,66.00
2019-03-06T15:23:31.052Z,66.09
2019-03-06T15:25:59.977Z,65.91
2019-03-06T15:28:29.469Z,65.82
2019-03-06T15:30:58.642Z,65.78
2019-03-06T15:33:27.602Z,65.98
2019-03-06T15:35:56.339Z,66.24
2019-03-06T15:38:25.253Z,66.45
2019-03-06T15:40:54.311Z,66.18
2019-03-06T15:43:23.476Z,66.51
2019-03-06T15:45:53.706Z,66.72
2019-03-06T15:48:23.151Z,66.75
2019-03-06T15:50:51.917Z,66.81
2019-03-06T15:53:24.581Z,66.97
2019-03-06T15:55:51.879Z,66.99
2019-03-06T15:58:20.844Z,67.10
2019-03-06T16:00:50.020Z,67.18
2019-03-06T16:03:18.655Z,67.49
2019-03-06T16:05:47.787Z,67.81
2019-03-06T16:08:16.775Z,67.86
2019-03-06T16:10:46.075Z,67.56
2019-03-06T16:13:15.295Z,67.78
2019-03-06T16:15:44.295Z,67.85
2019-03-06T16:18:13.245Z,68.00
2019-03-06T16:20:44.699Z,68.05
2019-03-06T16:23:15.699Z,68.16
2019-03-06T16:25:44.456Z,68.49
2019-03-06T16:28:13.217Z,68.30
2019-03-06T16:30:42.436Z,68.21
2019-03-06T16:33:11.427Z,68.45
2019-03-06T16:35:40.601Z,68.47
2019-03-06T16:38:09.535Z,68.66
2019-03-06T16:40:38.563Z,68.77
2019-03-06T16:43:07.312Z,69.13
2019-03-06T16:45:35.986Z,69.41
2019-03-06T16:48:04.687Z,69.34
2019-03-06T16:50:33.435Z,69.38
2019-03-06T16:53:02.759Z,69.28
2019-03-06T16:55:31.842Z,69.46
2019-03-06T16:58:01.154Z,68.96
2019-03-06T17:00:31.167Z,68.75
2019-03-06T17:03:01.701Z,68.70
2019-03-06T17:05:31.132Z,68.56
2019-03-06T17:08:04.203Z,68.48
2019-03-06T17:10:41.008Z,68.65
2019-03-06T17:13:10.506Z,68.66
2019-03-06T17:15:39.594Z,68.58
2019-03-06T17:18:08.707Z,68.46
2019-03-06T17:20:37.395Z,68.30
2019-03-06T17:23:06.260Z,68.08
2019-03-06T17:25:35.842Z,67.96
2019-03-06T17:28:04.883Z,68.18
2019-03-06T17:30:33.652Z,68.38
2019-03-06T17:33:04.602Z,68.32
2019-03-06T17:35:33.983Z,68.28
2019-03-06T17:38:04.002Z,68.28
2019-03-06T17:40:32.995Z,68.24
2019-03-06T17:43:02.186Z,68.43
2019-03-06T17:45:30.906Z,68.39
2019-03-06T17:48:00.013Z,68.31
2019-03-06T17:50:28.946Z,68.08
2019-03-06T17:52:58.017Z,68.11
2019-03-06T17:55:26.788Z,68.21
2019-03-06T17:57:55.751Z,67.92
2019-03-06T18:00:30.884Z,68.78
2019-03-06T18:03:00.605Z,67.79
2019-03-06T18:05:29.889Z,68.11
2019-03-06T18:07:59.192Z,68.06
2019-03-06T18:10:28.208Z,68.38
2019-03-06T18:12:56.884Z,68.94
2019-03-06T18:15:26.019Z,69.18
2019-03-06T18:17:54.630Z,69.41
2019-03-06T18:20:23.545Z,69.30
2019-03-06T18:22:52.846Z,69.50
2019-03-06T18:25:21.819Z,69.38
2019-03-06T18:27:50.728Z,69.40
2019-03-06T18:30:19.719Z,69.18
2019-03-06T18:32:48.922Z,69.32
2019-03-06T18:35:17.660Z,69.22
2019-03-06T18:37:47.123Z,69.33
2019-03-06T18:40:16.890Z,69.60
2019-03-06T18:42:46.448Z,69.08
2019-03-06T18:45:16.588Z,68.72
2019-03-06T18:47:45.601Z,68.59
2019-03-06T18:50:17.307Z,68.24
2019-03-06T18:52:46.807Z,68.00
2019-03-06T18:55:15.837Z,67.66
2019-03-06T18:57:44.565Z,67.63
2019-03-06T19:00:16.233Z,67.55
2019-03-06T19:02:44.867Z,67.24
2019-03-06T19:05:14.379Z,67.50
2019-03-06T19:07:46.549Z,67.32
2019-03-06T19:10:17.289Z,67.69
2019-03-06T19:12:46.565Z,67.96
2019-03-06T19:15:17.174Z,67.99
2019-03-06T19:17:46.168Z,67.92
2019-03-06T19:20:16.917Z,67.89
2019-03-06T19:22:46.082Z,67.92
2019-03-06T19:25:15.705Z,67.53
2019-03-06T19:27:44.545Z,67.69
2019-03-06T19:30:20.731Z,67.49
2019-03-06T19:32:50.162Z,67.71
2019-03-06T19:35:19.770Z,68.63
2019-03-06T19:37:48.868Z,68.82
2019-03-06T19:40:18.083Z,68.91
2019-03-06T19:42:47.467Z,69.02
2019-03-06T19:45:17.575Z,69.10
2019-03-06T19:47:50.634Z,68.85
2019-03-06T19:50:20.782Z,69.10
2019-03-06T19:52:49.775Z,68.56
2019-03-06T19:55:19.315Z,68.37
2019-03-06T19:57:49.756Z,68.23
2019-03-06T20:00:18.945Z,68.09
2019-03-06T20:02:48.135Z,68.18
2019-03-06T20:05:17.625Z,68.14
2019-03-06T20:07:47.239Z,68.14
2019-03-06T20:10:16.139Z,68.48
2019-03-06T20:12:45.340Z,68.54
2019-03-06T20:15:14.939Z,69.93
2019-03-06T20:17:43.682Z,70.51
2019-03-06T20:20:12.943Z,72.31
2019-03-06T20:22:42.019Z,71.89
2019-03-06T20:25:10.770Z,73.25
2019-03-06T20:27:39.400Z,73.96
2019-03-06T20:30:08.450Z,74.69
2019-03-06T20:32:37.788Z,75.54
2019-03-06T20:35:06.518Z,76.93
2019-03-06T20:37:35.316Z,76.84
2019-03-06T20:40:07.935Z,76.66
2019-03-06T20:42:43.927Z,77.41
2019-03-06T20:45:13.131Z,77.41
2019-03-06T20:47:41.840Z,77.95
2019-03-06T20:50:10.971Z,78.88
2019-03-06T20:52:39.988Z,79.34
2019-03-06T20:55:09.383Z,79.74
2019-03-06T20:57:38.062Z,79.74
2019-03-06T21:00:08.352Z,81.00
2019-03-06T21:02:37.388Z,81.00
2019-03-06T21:05:06.794Z,81.27
2019-03-06T21:07:44.600Z,81.25
2019-03-06T21:10:06.249Z,81.38
2019-03-06T21:12:35.517Z,82.13
2019-03-06T21:15:05.248Z,82.13
2019-03-06T21:17:34.757Z,81.95
2019-03-06T21:20:03.931Z,83.21
2019-03-06T21:22:32.870Z,83.21
2019-03-06T21:25:01.919Z,82.94
2019-03-06T21:27:32.453Z,82.91
2019-03-06T21:30:05.214Z,82.82
2019-03-06T21:32:34.633Z,82.81
2019-03-06T21:35:03.453Z,83.20
2019-03-06T21:37:32.362Z,83.63
2019-03-06T21:40:01.223Z,84.02
2019-03-06T21:42:34.155Z,84.17
2019-03-06T21:45:02.904Z,84.17
2019-03-06T21:47:32.607Z,84.33
2019-03-06T21:50:01.240Z,84.47
2019-03-06T21:52:29.899Z,84.47
2019-03-06T21:54:59.626Z,85.89
2019-03-06T21:57:28.531Z,86.69
2019-03-06T21:59:57.684Z,86.55
2019-03-06T22:02:26.812Z,87.22
2019-03-06T22:04:55.786Z,87.26
2019-03-06T22:07:25.004Z,87.27
2019-03-06T22:09:53.922Z,88.32
2019-03-06T22:12:22.957Z,87.66
2019-03-06T22:14:51.885Z,88.02
2019-03-06T22:17:21.069Z,87.79
2019-03-06T22:19:51.137Z,88.18
2019-03-06T22:22:19.867Z,88.07
2019-03-06T22:24:49.029Z,87.98
2019-03-06T22:27:17.662Z,88.27
2019-03-06T22:29:46.565Z,87.89
2019-03-06T22:32:15.576Z,88.39
2019-03-06T22:34:44.525Z,88.50
2019-03-06T22:37:13.511Z,88.44
2019-03-06T22:39:42.642Z,88.55
2019-03-06T22:42:11.283Z,88.25
2019-03-06T22:44:39.917Z,88.58
2019-03-06T22:47:08.919Z,88.44
2019-03-06T22:49:40.110Z,88.35
2019-03-06T22:52:08.721Z,88.41
2019-03-06T22:54:37.362Z,87.69
2019-03-06T22:57:06.442Z,87.91
2019-03-06T22:59:35.575Z,88.11
2019-03-06T23:02:04.399Z,88.62
2019-03-06T23:04:33.268Z,88.84
2019-03-06T23:07:02.422Z,88.77
2019-03-06T23:09:31.312Z,89.19
2019-03-06T23:11:59.950Z,89.23
2019-03-06T23:14:28.890Z,89.09
2019-03-06T23:16:57.809Z,88.93
2019-03-06T23:19:26.418Z,89.13
2019-03-06T23:21:55.260Z,89.13
2019-03-06T23:24:23.974Z,89.33
2019-03-06T23:26:52.769Z,89.35
2019-03-06T23:29:21.948Z,89.03
2019-03-06T23:31:50.641Z,88.79
2019-03-06T23:34:19.651Z,88.79
2019-03-06T23:36:48.546Z,88.68
2019-03-06T23:39:17.441Z,88.91
2019-03-06T23:41:46.052Z,88.69
2019-03-06T23:44:15.084Z,88.09
2019-03-06T23:46:43.773Z,88.09
2019-03-06T23:49:12.646Z,87.98
2019-03-06T23:51:59.254Z,87.81
2019-03-06T23:54:30.791Z,87.93
2019-03-06T23:56:59.921Z,87.87
2019-03-06T23:59:28.578Z,87.15
